createdAt,value
2022-08-31T15:22:02.961Z,57.78
2022-08-31T15:27:07.332Z,57.79
2022-08-31T15:32:10.270Z,57.49
2022-08-31T15:37:11.763Z,57.89
2022-08-31T15:42:13.597Z,57.98
2022-08-31T15:47:33.498Z,58.22
2022-08-31T15:52:36.753Z,58.34
2022-08-31T15:57:39.039Z,58.38
2022-08-31T16:02:40.893Z,57.75
2022-08-31T16:07:43.043Z,57.57
2022-08-31T16:12:45.341Z,57.69
2022-08-31T16:17:46.657Z,58.20
2022-08-31T16:22:48.247Z,58.23
2022-08-31T16:27:49.746Z,58.75
2022-08-31T16:32:52.445Z,59.26
2022-08-31T16:37:54.836Z,59.77
2022-08-31T16:42:56.846Z,60.02
2022-08-31T16:48:16.861Z,60.58
2022-08-31T16:53:18.578Z,60.95
2022-08-31T16:58:40.962Z,61.21
2022-08-31T17:03:47.216Z,61.37
2022-08-31T17:08:52.363Z,61.73
2022-08-31T17:13:58.629Z,62.17
2022-08-31T17:19:01.885Z,62.43
2022-08-31T17:24:05.140Z,62.59
2022-08-31T17:29:06.950Z,62.82
2022-08-31T17:34:14.506Z,62.92
2022-08-31T17:39:16.777Z,63.40
2022-08-31T17:44:19.490Z,63.57
2022-08-31T17:49:22.890Z,63.83
2022-08-31T17:54:30.969Z,63.95
2022-08-31T17:59:35.286Z,64.18
2022-08-31T18:04:37.282Z,64.32
2022-08-31T18:09:40.218Z,64.44
2022-08-31T18:14:41.742Z,64.55
2022-08-31T18:19:44.010Z,64.72
2022-08-31T18:24:45.387Z,64.92
2022-08-31T18:29:46.874Z,65.07
2022-08-31T18:34:52.096Z,65.32
2022-08-31T18:40:14.103Z,65.52
2022-08-31T18:45:15.484Z,65.71
2022-08-31T18:50:16.922Z,65.72
2022-08-31T18:55:19.295Z,65.87
2022-08-31T19:00:20.905Z,66.18
2022-08-31T19:05:22.269Z,66.16
2022-08-31T19:10:23.649Z,66.27
2022-08-31T19:15:36.251Z,66.50
2022-08-31T19:20:37.796Z,66.41
2022-08-31T19:25:43.457Z,66.55
2022-08-31T19:30:47.482Z,66.64
2022-08-31T19:35:56.725Z,66.81
2022-08-31T19:40:59.268Z,66.79
2022-08-31T19:46:16.228Z,67.03
2022-08-31T19:51:19.763Z,67.17
2022-08-31T19:56:24.963Z,67.35
2022-08-31T20:01:32.758Z,67.23
2022-08-31T20:06:34.190Z,67.55
2022-08-31T20:11:35.819Z,67.62
2022-08-31T20:16:41.662Z,67.65
2022-08-31T20:21:44.434Z,67.64
2022-08-31T20:26:51.693Z,67.66
2022-08-31T20:31:55.078Z,67.93
2022-08-31T20:37:00.949Z,67.68
2022-08-31T20:42:03.212Z,67.73
2022-08-31T20:47:25.210Z,67.91
2022-08-31T20:52:28.096Z,68.16
2022-08-31T20:57:33.305Z,68.15
2022-08-31T21:02:35.115Z,68.15
2022-08-31T21:07:36.634Z,68.03
2022-08-31T21:12:37.956Z,68.34
2022-08-31T21:17:40.540Z,68.19
2022-08-31T21:22:41.979Z,68.23
2022-08-31T21:27:43.297Z,68.36
2022-08-31T21:32:46.738Z,68.55
2022-08-31T21:37:48.111Z,68.62
2022-08-31T21:42:49.477Z,68.63
2022-08-31T21:47:51.425Z,68.42
2022-08-31T21:52:55.235Z,68.62
2022-08-31T21:58:01.373Z,68.60
2022-08-31T22:03:02.849Z,68.78
2022-08-31T22:08:04.320Z,68.70
2022-08-31T22:13:06.208Z,68.50
2022-08-31T22:18:35.634Z,68.55
2022-08-31T22:23:29.971Z,68.78
2022-08-31T22:28:31.286Z,68.62
2022-08-31T22:33:32.670Z,68.76
2022-08-31T22:38:34.696Z,68.76
2022-08-31T22:43:40.138Z,68.75
2022-08-31T22:48:41.459Z,68.79
2022-08-31T22:53:44.154Z,68.89
2022-08-31T22:58:46.946Z,68.82
2022-08-31T23:03:51.009Z,68.91
2022-08-31T23:08:53.845Z,69.10
2022-08-31T23:13:56.512Z,69.12
2022-08-31T23:18:59.941Z,68.99
2022-08-31T23:24:02.172Z,69.04
2022-08-31T23:29:05.380Z,69.12
2022-08-31T23:34:13.157Z,69.27
2022-08-31T23:39:15.367Z,69.25
2022-08-31T23:44:18.046Z,69.33
2022-08-31T23:49:20.144Z,69.36
2022-08-31T23:54:23.177Z,69.17
2022-08-31T23:59:25.083Z,69.19
